createdAt,value
2023-04-12T00:01:32.161Z,10.14
2023-04-12T00:04:00.235Z,10.06
2023-04-12T00:06:32.376Z,9.93
2023-04-12T00:09:00.863Z,9.80
2023-04-12T00:11:29.240Z,9.88
2023-04-12T00:13:58.767Z,9.97
2023-04-12T00:16:26.772Z,10.10
2023-04-12T00:18:55.391Z,10.29
2023-04-12T00:21:23.794Z,10.38
2023-04-12T00:23:51.505Z,10.29
2023-04-12T00:26:19.125Z,10.32
2023-04-12T00:28:47.303Z,10.17
2023-04-12T00:31:16.369Z,10.27
2023-04-12T00:33:44.088Z,10.35
2023-04-12T00:36:11.834Z,10.29
2023-04-12T00:38:39.517Z,10.17
2023-04-12T00:41:07.888Z,10.11
2023-04-12T00:43:36.086Z,9.80
2023-04-12T00:46:04.396Z,9.75
2023-04-12T00:48:33.556Z,9.65
2023-04-12T00:51:03.909Z,9.44
2023-04-12T00:53:32.293Z,9.63
2023-04-12T00:56:00.048Z,9.64
2023-04-12T00:58:27.693Z,9.55
2023-04-12T01:00:55.924Z,9.44
2023-04-12T01:03:24.792Z,9.45
2023-04-12T01:06:05.202Z,9.21
2023-04-12T01:08:45.284Z,9.03
2023-04-12T01:11:19.383Z,9.18
2023-04-12T01:13:53.097Z,9.07
2023-04-12T01:16:29.253Z,8.99
2023-04-12T01:19:03.773Z,8.93
2023-04-12T01:21:42.190Z,8.75
2023-04-12T01:24:24.676Z,8.55
2023-04-12T01:26:53.028Z,8.63
2023-04-12T01:29:23.350Z,8.68
2023-04-12T01:31:54.476Z,8.20
2023-04-12T01:34:25.632Z,8.40
2023-04-12T01:36:54.458Z,8.45
2023-04-12T01:39:22.548Z,8.24
2023-04-12T01:41:50.812Z,8.34
2023-04-12T01:44:20.051Z,8.41
2023-04-12T01:46:49.727Z,8.26
2023-04-12T01:49:19.022Z,8.18
2023-04-12T01:51:52.090Z,8.01
2023-04-12T01:54:23.390Z,8.07
2023-04-12T01:56:57.735Z,8.10
2023-04-12T01:59:29.247Z,7.75
2023-04-12T02:01:59.113Z,7.93
2023-04-12T02:04:52.296Z,8.01
2023-04-12T02:07:23.845Z,8.01
2023-04-12T02:09:51.504Z,8.06
2023-04-12T02:12:21.115Z,8.01
2023-04-12T02:14:51.862Z,8.03
2023-04-12T02:17:21.185Z,7.89
2023-04-12T02:19:49.154Z,7.99
2023-04-12T02:22:17.217Z,8.05
2023-04-12T02:24:44.885Z,7.97
2023-04-12T02:27:12.558Z,8.07
2023-04-12T02:29:41.264Z,8.06
2023-04-12T02:32:09.032Z,8.08
2023-04-12T02:34:38.440Z,7.91
2023-04-12T02:37:17.681Z,7.93
2023-04-12T02:39:45.606Z,8.08
2023-04-12T02:42:13.648Z,8.00
2023-04-12T02:44:44.125Z,8.05
2023-04-12T02:47:13.971Z,8.02
2023-04-12T02:49:46.817Z,8.07
2023-04-12T02:52:17.177Z,8.07
2023-04-12T02:55:06.938Z,8.17
2023-04-12T02:57:34.885Z,8.13
2023-04-12T03:00:09.025Z,8.17
2023-04-12T03:02:45.904Z,8.23
2023-04-12T03:05:23.485Z,8.20
2023-04-12T03:07:52.573Z,8.25
2023-04-12T03:10:25.499Z,8.21
2023-04-12T03:13:02.396Z,8.19
2023-04-12T03:15:34.909Z,8.05
2023-04-12T03:18:03.277Z,8.06
2023-04-12T03:20:38.997Z,8.10
2023-04-12T03:23:09.564Z,7.95
2023-04-12T03:25:42.425Z,7.96
2023-04-12T03:28:39.328Z,7.87
2023-04-12T03:31:08.383Z,8.14
2023-04-12T03:33:47.065Z,7.99
2023-04-12T03:36:26.974Z,8.03
2023-04-12T03:39:05.853Z,8.03
2023-04-12T03:41:35.724Z,7.92
2023-04-12T03:44:07.249Z,7.92
2023-04-12T03:46:36.613Z,8.00
2023-04-12T03:49:09.070Z,7.97
2023-04-12T03:51:42.528Z,8.02
2023-04-12T03:54:11.129Z,7.95
2023-04-12T03:56:48.705Z,8.01
2023-04-12T03:59:24.580Z,8.11
2023-04-12T04:01:52.306Z,7.90
2023-04-12T04:04:20.934Z,7.97
2023-04-12T04:06:52.276Z,8.06
2023-04-12T04:09:20.295Z,7.99
2023-04-12T04:11:50.031Z,8.03
2023-04-12T04:14:18.668Z,8.01
2023-04-12T04:16:47.101Z,7.92
2023-04-12T04:19:15.697Z,7.79
2023-04-12T04:21:46.000Z,7.84
2023-04-12T04:24:15.275Z,7.90
2023-04-12T04:26:47.322Z,7.75
2023-04-12T04:29:23.707Z,7.69
2023-04-12T04:31:53.221Z,7.74
2023-04-12T04:34:23.206Z,7.66
2023-04-12T04:36:53.539Z,7.68
2023-04-12T04:39:27.180Z,7.77
2023-04-12T04:41:57.403Z,7.65
2023-04-12T04:44:39.358Z,7.64
2023-04-12T04:47:12.048Z,7.67
2023-04-12T04:49:39.703Z,7.49
2023-04-12T04:52:22.817Z,7.56
2023-04-12T04:54:57.372Z,7.54
2023-04-12T04:57:27.387Z,7.48
2023-04-12T04:59:57.512Z,7.48
2023-04-12T05:02:26.039Z,7.54
2023-04-12T05:04:56.296Z,7.43
2023-04-12T05:07:27.105Z,7.47
2023-04-12T05:09:56.418Z,7.59
2023-04-12T05:12:24.128Z,7.56
2023-04-12T05:15:10.713Z,7.59
2023-04-12T05:17:39.720Z,7.58
2023-04-12T05:20:10.615Z,7.66
2023-04-12T05:22:39.615Z,7.68
2023-04-12T05:25:09.734Z,7.50
2023-04-12T05:27:45.618Z,7.47
2023-04-12T05:30:16.369Z,7.62
2023-04-12T05:32:45.522Z,7.50
2023-04-12T05:35:15.253Z,7.58
2023-04-12T05:37:44.616Z,7.52
2023-04-12T05:40:15.802Z,7.60
2023-04-12T05:42:43.977Z,7.69
2023-04-12T05:45:12.721Z,7.73
2023-04-12T05:47:40.844Z,7.57
2023-04-12T05:50:09.263Z,7.71
2023-04-12T05:52:37.756Z,7.64
2023-04-12T05:55:07.635Z,7.69
2023-04-12T05:57:40.171Z,7.72
2023-04-12T06:00:13.149Z,7.67
2023-04-12T06:02:42.338Z,7.75
2023-04-12T06:05:11.006Z,7.74
2023-04-12T06:07:39.373Z,7.76
2023-04-12T06:10:08.599Z,7.74
2023-04-12T06:12:36.679Z,7.83
2023-04-12T06:15:07.334Z,7.86
2023-04-12T06:17:35.410Z,7.90
2023-04-12T06:20:05.852Z,7.76
2023-04-12T06:22:33.762Z,7.83
2023-04-12T06:25:02.227Z,7.84
2023-04-12T06:27:30.267Z,7.94
2023-04-12T06:29:58.354Z,7.87
2023-04-12T06:32:27.521Z,8.01
2023-04-12T06:34:56.181Z,7.95
2023-04-12T06:37:23.883Z,7.92
2023-04-12T06:39:52.501Z,7.97
2023-04-12T06:42:20.418Z,8.10
2023-04-12T06:44:48.587Z,8.19
2023-04-12T06:47:16.581Z,8.22
2023-04-12T06:49:45.612Z,8.12
2023-04-12T06:52:13.207Z,8.24
2023-04-12T06:54:40.844Z,8.28
2023-04-12T06:57:10.018Z,8.32
2023-04-12T06:59:37.728Z,8.25
2023-04-12T07:02:06.707Z,8.45
2023-04-12T07:04:34.864Z,8.59
2023-04-12T07:07:03.900Z,8.69
2023-04-12T07:09:32.213Z,8.74
2023-04-12T07:11:59.923Z,8.82
2023-04-12T07:14:27.606Z,8.78
2023-04-12T07:16:56.003Z,8.73
2023-04-12T07:19:23.915Z,8.74
2023-04-12T07:21:51.522Z,8.78
2023-04-12T07:24:20.506Z,8.88
2023-04-12T07:26:48.243Z,9.07
2023-04-12T07:29:16.970Z,9.20
2023-04-12T07:31:45.625Z,8.93
2023-04-12T07:34:13.471Z,9.06
2023-04-12T07:36:41.172Z,9.19
2023-04-12T07:39:11.866Z,9.14
2023-04-12T07:41:42.252Z,9.00
2023-04-12T07:44:09.962Z,9.00
2023-04-12T07:46:37.645Z,9.21
2023-04-12T07:49:05.374Z,8.97
2023-04-12T07:51:33.475Z,9.22
2023-04-12T07:54:01.447Z,9.20
2023-04-12T07:56:29.059Z,9.30
2023-04-12T07:58:58.202Z,9.28
2023-04-12T08:01:26.006Z,9.29
2023-04-12T08:03:53.836Z,9.35
2023-04-12T08:06:21.542Z,9.29
2023-04-12T08:08:49.366Z,9.37
2023-04-12T08:11:16.953Z,9.45
2023-04-12T08:13:44.590Z,9.46
2023-04-12T08:16:13.740Z,9.37
2023-04-12T08:18:41.601Z,9.23
2023-04-12T08:21:09.328Z,9.49
2023-04-12T08:23:37.041Z,9.74
2023-04-12T08:26:04.913Z,9.70
2023-04-12T08:28:33.451Z,9.83
2023-04-12T08:31:01.290Z,9.88
2023-04-12T08:33:30.359Z,9.82
2023-04-12T08:35:59.055Z,9.75
2023-04-12T08:38:41.438Z,9.98
2023-04-12T08:41:13.777Z,9.93
2023-04-12T08:43:45.298Z,9.75
2023-04-12T08:46:15.500Z,10.10
2023-04-12T08:48:46.268Z,10.15
2023-04-12T08:51:15.996Z,10.00
2023-04-12T08:53:44.060Z,9.99
2023-04-12T08:56:13.261Z,9.92
2023-04-12T08:58:42.962Z,10.07
2023-04-12T09:01:14.030Z,9.89
2023-04-12T09:03:43.461Z,9.94
2023-04-12T09:06:12.873Z,9.94
2023-04-12T09:08:53.321Z,10.06
2023-04-12T09:11:26.355Z,10.20
2023-04-12T09:13:55.925Z,10.26
2023-04-12T09:16:37.359Z,10.27
2023-04-12T09:19:05.523Z,10.17
2023-04-12T09:21:35.660Z,10.05
2023-04-12T09:24:06.097Z,10.13
2023-04-12T09:26:33.761Z,9.97
2023-04-12T09:29:01.458Z,10.17
2023-04-12T09:31:29.159Z,10.42
2023-04-12T09:34:07.698Z,10.36
2023-04-12T09:36:40.218Z,10.35
2023-04-12T09:39:08.946Z,10.50
2023-04-12T09:41:36.685Z,10.61
2023-04-12T09:44:04.864Z,10.51
2023-04-12T09:46:32.627Z,10.72
2023-04-12T09:49:00.454Z,10.71
2023-04-12T09:51:31.134Z,10.46
2023-04-12T09:54:01.945Z,10.36
2023-04-12T09:56:32.070Z,10.57
2023-04-12T09:59:02.862Z,10.67
2023-04-12T10:01:33.499Z,10.83
2023-04-12T10:04:02.460Z,10.77
2023-04-12T10:06:31.325Z,10.78
2023-04-12T10:09:02.904Z,10.87
2023-04-12T10:11:30.906Z,11.01
2023-04-12T10:13:59.781Z,10.89
2023-04-12T10:16:28.822Z,10.64
2023-04-12T10:18:57.094Z,10.83
2023-04-12T10:21:24.936Z,10.57
2023-04-12T10:23:52.643Z,10.64
2023-04-12T10:26:22.116Z,10.55
2023-04-12T10:29:26.260Z,10.67
2023-04-12T10:31:54.794Z,10.71
2023-04-12T10:34:29.617Z,10.79
2023-04-12T10:36:58.289Z,11.03
2023-04-12T10:39:40.455Z,11.11
2023-04-12T10:42:23.951Z,11.04
2023-04-12T10:44:53.019Z,10.90
2023-04-12T10:48:01.815Z,10.79
2023-04-12T10:50:31.243Z,11.28
2023-04-12T10:53:26.690Z,11.32
2023-04-12T10:55:54.618Z,11.46
2023-04-12T10:58:58.510Z,11.53
2023-04-12T11:01:29.014Z,11.19
2023-04-12T11:04:18.593Z,11.13
2023-04-12T11:07:10.090Z,10.84
2023-04-12T11:09:58.363Z,10.69
2023-04-12T11:12:35.454Z,11.01
2023-04-12T11:15:06.121Z,10.70
2023-04-12T11:17:55.189Z,10.77
2023-04-12T11:20:23.222Z,10.92
2023-04-12T11:22:51.737Z,11.02
2023-04-12T11:25:19.557Z,11.02
2023-04-12T11:27:51.448Z,11.05
2023-04-12T11:30:20.682Z,11.14
2023-04-12T11:32:48.640Z,10.96
2023-04-12T11:35:17.043Z,11.19
2023-04-12T11:37:45.142Z,11.14
2023-04-12T11:40:13.061Z,11.24
2023-04-12T11:42:41.490Z,11.33
2023-04-12T11:45:16.623Z,11.53
2023-04-12T11:47:47.160Z,11.49
2023-04-12T11:50:29.371Z,11.62
2023-04-12T11:53:09.854Z,11.99
2023-04-12T11:55:37.544Z,11.91
2023-04-12T11:58:05.241Z,11.62
2023-04-12T12:00:33.084Z,11.81
2023-04-12T12:03:07.197Z,11.59
2023-04-12T12:05:38.312Z,11.79
2023-04-12T12:08:07.837Z,11.91
2023-04-12T12:10:44.142Z,12.02
2023-04-12T12:13:19.865Z,12.22
2023-04-12T12:15:47.624Z,12.26
2023-04-12T12:18:16.823Z,11.86
2023-04-12T12:20:50.701Z,11.70
2023-04-12T12:23:30.073Z,12.04
2023-04-12T12:26:14.417Z,12.22
2023-04-12T12:28:50.875Z,12.27
2023-04-12T12:31:21.553Z,12.47
2023-04-12T12:33:54.863Z,12.37
2023-04-12T12:36:32.056Z,12.33
2023-04-12T12:39:06.750Z,12.35
2023-04-12T12:41:34.570Z,12.43
2023-04-12T12:44:02.533Z,12.54
2023-04-12T12:46:44.652Z,12.66
2023-04-12T12:49:19.861Z,12.79
2023-04-12T12:51:47.721Z,12.81
2023-04-12T12:54:25.067Z,12.86
2023-04-12T12:56:59.841Z,12.64
2023-04-12T12:59:27.454Z,12.26
2023-04-12T13:01:55.154Z,11.94
2023-04-12T13:04:24.282Z,11.69
2023-04-12T13:06:52.985Z,11.57
2023-04-12T13:09:20.838Z,11.48
2023-04-12T13:11:48.456Z,11.70
2023-04-12T13:14:16.776Z,11.76
2023-04-12T13:16:46.183Z,11.68
2023-04-12T13:19:13.929Z,11.86
2023-04-12T13:21:42.965Z,11.68
2023-04-12T13:24:11.210Z,11.64
2023-04-12T13:26:38.889Z,11.86
2023-04-12T13:29:06.575Z,11.95
2023-04-12T13:31:34.314Z,11.85
2023-04-12T13:34:02.050Z,11.89
2023-04-12T13:36:29.721Z,11.82
2023-04-12T13:38:58.822Z,11.85
2023-04-12T13:41:26.872Z,11.84
2023-04-12T13:43:54.546Z,12.17
2023-04-12T13:46:22.196Z,12.07
2023-04-12T13:48:49.846Z,12.20
2023-04-12T13:51:17.956Z,11.87
2023-04-12T13:53:45.848Z,11.84
2023-04-12T13:56:15.872Z,11.79
2023-04-12T13:58:44.024Z,11.73
2023-04-12T14:01:13.348Z,11.75
2023-04-12T14:03:41.574Z,11.71
2023-04-12T14:06:09.616Z,11.97
2023-04-12T14:08:37.402Z,12.07
2023-04-12T14:11:05.394Z,12.08
2023-04-12T14:13:34.524Z,12.24
2023-04-12T14:16:02.201Z,12.20
2023-04-12T14:18:29.918Z,12.12
2023-04-12T14:20:57.644Z,12.03
2023-04-12T14:23:26.073Z,11.90
2023-04-12T14:25:54.126Z,11.93
2023-04-12T14:28:24.150Z,11.92
2023-04-12T14:30:53.166Z,12.13
2023-04-12T14:33:20.828Z,12.03
2023-04-12T14:35:48.630Z,11.99
2023-04-12T14:38:16.279Z,12.08
2023-04-12T14:40:43.907Z,11.97
2023-04-12T14:43:11.578Z,12.12
2023-04-12T14:45:39.186Z,12.32
2023-04-12T14:48:08.410Z,12.30
2023-04-12T14:50:36.037Z,12.17
2023-04-12T14:53:03.660Z,12.02
2023-04-12T14:55:31.593Z,12.06
2023-04-12T14:57:59.318Z,11.75
2023-04-12T15:00:29.233Z,12.09
2023-04-12T15:02:57.469Z,12.07
2023-04-12T15:05:27.296Z,12.15
2023-04-12T15:07:55.274Z,12.11
2023-04-12T15:10:23.028Z,12.03
2023-04-12T15:12:50.775Z,12.02
2023-04-12T15:15:18.613Z,11.92
2023-04-12T15:17:46.334Z,12.00
2023-04-12T15:20:17.030Z,11.94
2023-04-12T15:22:46.074Z,12.04
2023-04-12T15:25:13.992Z,12.06
2023-04-12T15:27:41.813Z,12.20
2023-04-12T15:30:12.800Z,12.19
2023-04-12T15:32:42.397Z,12.24
2023-04-12T15:37:41.899Z,12.34
2023-04-12T15:40:13.582Z,12.36
2023-04-12T15:42:43.281Z,12.39
2023-04-12T15:45:11.904Z,12.35
2023-04-12T15:47:41.250Z,12.16
2023-04-12T15:50:10.075Z,12.32
2023-04-12T15:52:37.784Z,12.54
2023-04-12T15:55:06.081Z,12.52
2023-04-12T15:57:37.108Z,12.44
2023-04-12T16:00:13.852Z,12.30
2023-04-12T16:02:42.090Z,12.85
2023-04-12T16:05:10.127Z,13.54
2023-04-12T16:07:40.444Z,13.46
2023-04-12T16:10:09.030Z,13.55
2023-04-12T16:12:38.035Z,13.56
2023-04-12T16:15:06.884Z,13.12
2023-04-12T16:17:34.875Z,12.93
2023-04-12T16:20:02.662Z,12.90
2023-04-12T16:22:30.379Z,12.91
2023-04-12T16:24:58.358Z,13.08
2023-04-12T16:27:29.364Z,13.22
2023-04-12T16:29:58.668Z,13.25
2023-04-12T16:32:26.380Z,13.20
2023-04-12T16:34:54.093Z,13.20
2023-04-12T16:37:21.941Z,13.29
2023-04-12T16:39:50.824Z,13.00
2023-04-12T16:42:21.710Z,13.08
2023-04-12T16:44:49.349Z,13.02
2023-04-12T16:47:18.488Z,12.51
2023-04-12T16:49:46.679Z,12.74
2023-04-12T16:52:15.358Z,12.88
2023-04-12T16:54:43.131Z,12.62
2023-04-12T16:57:11.710Z,12.46
2023-04-12T16:59:39.763Z,12.38
2023-04-12T17:02:07.889Z,12.38
2023-04-12T17:04:37.361Z,12.44
2023-04-12T17:07:05.549Z,12.40
2023-04-12T17:09:33.303Z,12.27
2023-04-12T17:12:01.171Z,12.19
2023-04-12T17:14:29.750Z,12.10
2023-04-12T17:16:57.584Z,12.07
2023-04-12T17:19:25.888Z,11.98
2023-04-12T17:21:55.036Z,11.93
2023-04-12T17:24:25.411Z,11.86
2023-04-12T17:26:53.707Z,12.03
2023-04-12T17:29:21.750Z,12.07
2023-04-12T17:31:53.157Z,11.83
2023-04-12T17:34:22.766Z,11.86
2023-04-12T17:36:50.361Z,11.99
2023-04-12T17:39:19.326Z,11.83
2023-04-12T17:41:47.843Z,11.85
2023-04-12T17:44:15.505Z,11.80
2023-04-12T17:46:44.141Z,11.77
2023-04-12T17:49:11.771Z,11.83
2023-04-12T17:51:39.410Z,11.75
2023-04-12T17:54:07.753Z,11.88
2023-04-12T17:56:36.751Z,11.85
2023-04-12T17:59:05.531Z,11.81
2023-04-12T18:01:34.810Z,11.72
2023-04-12T18:04:05.562Z,11.73
2023-04-12T18:06:33.927Z,11.63
2023-04-12T18:09:02.721Z,11.48
2023-04-12T18:11:30.441Z,11.36
2023-04-12T18:13:59.778Z,11.47
2023-04-12T18:16:28.009Z,11.36
2023-04-12T18:18:55.969Z,11.27
2023-04-12T18:21:23.833Z,11.36
2023-04-12T18:23:52.063Z,11.34
2023-04-12T18:26:19.775Z,11.24
2023-04-12T18:28:47.388Z,11.28
2023-04-12T18:31:16.616Z,11.15
2023-04-12T18:33:44.332Z,11.12
2023-04-12T18:36:12.230Z,10.90
2023-04-12T18:38:40.190Z,11.03
2023-04-12T18:41:09.132Z,10.88
2023-04-12T18:43:36.758Z,11.04
2023-04-12T18:46:04.596Z,11.21
2023-04-12T18:48:35.387Z,11.04
2023-04-12T18:51:03.116Z,11.23
2023-04-12T18:53:31.003Z,11.24
2023-04-12T18:56:08.484Z,11.23
2023-04-12T18:58:53.984Z,11.24
2023-04-12T19:01:23.163Z,11.24
2023-04-12T19:03:52.344Z,11.25
2023-04-12T19:06:20.272Z,11.26
2023-04-12T19:08:49.555Z,11.26
2023-04-12T19:11:17.244Z,11.26
2023-04-12T19:13:44.870Z,11.42
2023-04-12T19:16:12.712Z,11.08
2023-04-12T19:18:40.388Z,11.25
2023-04-12T19:21:09.913Z,11.01
2023-04-12T19:23:38.077Z,10.51
2023-04-12T19:26:07.584Z,9.69
2023-04-12T19:28:35.581Z,9.21
2023-04-12T19:31:05.053Z,8.78
2023-04-12T19:33:32.776Z,8.61
2023-04-12T19:36:00.459Z,8.64
2023-04-12T19:38:29.467Z,8.53
2023-04-12T19:40:57.089Z,8.32
2023-04-12T19:43:25.634Z,8.14
2023-04-12T19:45:53.474Z,8.10
2023-04-12T19:48:21.280Z,7.96
2023-04-12T19:50:49.033Z,7.77
2023-04-12T19:53:18.002Z,7.70
2023-04-12T19:55:46.998Z,7.64
2023-04-12T19:58:15.368Z,7.70
2023-04-12T20:00:43.411Z,7.64
2023-04-12T20:03:11.516Z,7.57
2023-04-12T20:05:39.908Z,7.50
2023-04-12T20:08:07.745Z,7.39
2023-04-12T20:10:35.942Z,7.36
2023-04-12T20:13:09.584Z,7.23
2023-04-12T20:15:38.859Z,7.19
2023-04-12T20:18:08.085Z,7.30
2023-04-12T20:20:35.787Z,7.33
2023-04-12T20:23:03.485Z,7.29
2023-04-12T20:25:33.878Z,7.30
2023-04-12T20:28:02.662Z,7.34
2023-04-12T20:30:31.927Z,7.35
2023-04-12T20:33:00.910Z,7.39
2023-04-12T20:35:28.978Z,7.41
2023-04-12T20:37:56.740Z,7.43
2023-04-12T20:40:27.036Z,7.43
2023-04-12T20:42:54.741Z,7.41
2023-04-12T20:45:23.307Z,7.36
2023-04-12T20:47:52.356Z,7.21
2023-04-12T20:50:22.955Z,7.13
2023-04-12T20:52:51.878Z,7.22
2023-04-12T20:55:19.803Z,7.35
2023-04-12T20:57:47.629Z,7.36
2023-04-12T21:00:17.847Z,7.37
2023-04-12T21:02:46.954Z,7.42
2023-04-12T21:05:17.116Z,7.39
2023-04-12T21:07:46.664Z,7.39
2023-04-12T21:10:15.100Z,7.50
2023-04-12T21:12:44.922Z,7.46
2023-04-12T21:15:13.378Z,7.53
2023-04-12T21:17:41.393Z,7.57
2023-04-12T21:20:13.380Z,7.56
2023-04-12T21:22:43.929Z,7.61
2023-04-12T21:25:13.562Z,7.54
2023-04-12T21:27:42.501Z,7.53
2023-04-12T21:30:12.547Z,7.28
2023-04-12T21:32:41.026Z,7.32
2023-04-12T21:35:10.987Z,7.42
2023-04-12T21:37:39.360Z,7.45
2023-04-12T21:40:10.054Z,7.43
2023-04-12T21:42:38.360Z,7.38
2023-04-12T21:45:08.204Z,7.38
2023-04-12T21:47:36.737Z,7.33
2023-04-12T21:50:04.706Z,7.21
2023-04-12T21:52:32.436Z,7.12
2023-04-12T21:55:00.159Z,7.21
2023-04-12T21:57:31.776Z,7.19
2023-04-12T21:59:59.540Z,7.07
2023-04-12T22:02:27.754Z,7.23
2023-04-12T22:04:55.558Z,7.30
2023-04-12T22:07:23.298Z,7.39
2023-04-12T22:09:53.435Z,7.45
2023-04-12T22:12:21.717Z,7.65
2023-04-12T22:14:50.705Z,7.70
2023-04-12T22:17:18.869Z,7.78
2023-04-12T22:19:46.793Z,7.74
2023-04-12T22:22:15.367Z,7.85
2023-04-12T22:24:43.998Z,7.88
2023-04-12T22:27:11.912Z,7.87
2023-04-12T22:29:39.642Z,7.83
2023-04-12T22:32:09.379Z,7.93
2023-04-12T22:34:37.747Z,7.91
2023-04-12T22:37:06.906Z,7.98
2023-04-12T22:39:34.657Z,8.05
2023-04-12T22:42:04.036Z,8.10
2023-04-12T22:44:37.916Z,8.28
2023-04-12T22:47:07.288Z,8.37
2023-04-12T22:49:46.389Z,8.32
2023-04-12T22:52:14.001Z,8.34
2023-04-12T22:54:41.685Z,8.42
2023-04-12T22:57:09.352Z,8.49
2023-04-12T22:59:37.863Z,8.40
2023-04-12T23:02:06.469Z,8.40
2023-04-12T23:04:35.575Z,8.22
2023-04-12T23:07:03.275Z,8.23
2023-04-12T23:09:32.804Z,8.17
2023-04-12T23:12:00.582Z,8.04
2023-04-12T23:14:29.734Z,8.12
2023-04-12T23:16:57.899Z,8.12
2023-04-12T23:19:25.933Z,8.23
2023-04-12T23:21:55.401Z,8.23
2023-04-12T23:24:23.113Z,8.30
2023-04-12T23:26:50.820Z,8.24
2023-04-12T23:29:18.517Z,8.45
2023-04-12T23:31:46.256Z,8.41
2023-04-12T23:34:13.950Z,8.32
2023-04-12T23:36:41.573Z,8.19
2023-04-12T23:39:11.189Z,8.03
2023-04-12T23:41:40.700Z,8.14
2023-04-12T23:44:09.015Z,8.02
2023-04-12T23:46:36.682Z,8.10
2023-04-12T23:49:04.369Z,8.25
2023-04-12T23:51:32.416Z,8.12
2023-04-12T23:54:00.655Z,7.93
2023-04-12T23:56:29.894Z,7.98
2023-04-12T23:58:57.526Z,8.05
